Terminal Aerodrome Forecast
Issued by NWS

Home | Current Version | Previous Version | Text Only | Print | Product List | Glossary On
Versions: 1 2 3 4 5 6 7 8 9 10 11 12
000
FTUS43 KMPX 220520
TAFRNH
TAF
KRNH 220520Z 2206/2306 VRB02KT P6SM SCT250
     FM221500 23004KT P6SM SKC
     FM221800 25007KT P6SM SKC
     FM230200 21003KT P6SM SKC=

USA.gov is the U.S. government's official web portal to all federal, state and local government web resources and services.